Benson Mines, New York
Current Conditions -  °F | °C
As of 11:58 PM on Sunday 21 Dec 2014 (Local Time) from KGTB Reporting Station
Clear Clear  
Wind Chill:   Ceiling: Unl
Heat Index: 17°   Visibility: 9mi
Dew Point: 13°   Wind: 5mph
Humidity: 87%   Direction: 100°E
Pressure: 30.31"   Gusts: NA
Location:  44.1538°N, 74.996°W
Report Text: KGTB 220458Z AUTO 10004KT 9SM R21/5500FT CLR M09/M10 A3031 RMK AO2 SLP276 T10861104 400111086
Loading
Personal Weather Stations






























Interactive Weather Map New forecast layout! Learn more

10-Day Weather Forecast

Advertisements
Track Severe Weather on mobile